sensor_id;sensor_type;location;lat;lon;timestamp;pressure;altitude;pressure_sealevel;temperature;humidity
74433;BME280;62865;53.146;23.172;2022-09-11T00:03:56;1016.8;;;11.1;82.7
74433;BME280;62865;53.146;23.172;2022-09-11T00:09:05;1016.7;;;11.2;82.8
74433;BME280;62865;53.146;23.172;2022-09-11T00:13:45;1016.7;;;11.3;82.4
74433;BME280;62865;53.146;23.172;2022-09-11T00:18:44;1016.6;;;11.2;82.6
74433;BME280;62865;53.146;23.172;2022-09-11T00:23:25;1016.6;;;11.2;82.6
74433;BME280;62865;53.146;23.172;2022-09-11T00:28:36;1016.5;;;11;83.1
74433;BME280;62865;53.146;23.172;2022-09-11T00:33:46;1016.4;;;11;83.1
74433;BME280;62865;53.146;23.172;2022-09-11T00:38:27;1016.3;;;11.1;82.9
74433;BME280;62865;53.146;23.172;2022-09-11T00:44:55;1016.2;;;11.2;82.6
74433;BME280;62865;53.146;23.172;2022-09-11T00:49:21;1016.2;;;11.2;82.8
74433;BME280;62865;53.146;23.172;2022-09-11T00:53:24;1016.2;;;11.2;82.9
74433;BME280;62865;53.146;23.172;2022-09-11T00:58:45;1016.1;;;11.1;83
74433;BME280;62865;53.146;23.172;2022-09-11T01:09:02;1016.1;;;11.1;83
74433;BME280;62865;53.146;23.172;2022-09-11T01:13:47;1016.1;;;11.1;83
74433;BME280;62865;53.146;23.172;2022-09-11T01:18:26;1016.1;;;11.1;83
74433;BME280;62865;53.146;23.172;2022-09-11T01:23:54;1015.9;;;11.1;83.2
74433;BME280;62865;53.146;23.172;2022-09-11T01:29:01;1015.8;;;11.1;83.2
74433;BME280;62865;53.146;23.172;2022-09-11T01:33:27;1015.8;;;11.2;82.9
74433;BME280;62865;53.146;23.172;2022-09-11T01:38:57;1015.8;;;11.2;82.4
74433;BME280;62865;53.146;23.172;2022-09-11T01:43:53;1015.7;;;11.1;82.5
74433;BME280;62865;53.146;23.172;2022-09-11T01:48:53;1015.7;;;11.1;82.5
74433;BME280;62865;53.146;23.172;2022-09-11T01:53:54;1015.7;;;11;82.5
74433;BME280;62865;53.146;23.172;2022-09-11T01:59:05;1015.6;;;10.9;82.5
74433;BME280;62865;53.146;23.172;2022-09-11T02:03:26;1015.6;;;10.8;82.6
74433;BME280;62865;53.146;23.172;2022-09-11T02:08:27;1015.5;;;10.6;83.3
74433;BME280;62865;53.146;23.172;2022-09-11T02:13:57;1015.5;;;10.7;83.7
74433;BME280;62865;53.146;23.172;2022-09-11T02:19:10;1015.4;;;10.7;83.7
74433;BME280;62865;53.146;23.172;2022-09-11T02:24:09;1015.3;;;10.7;83.7
74433;BME280;62865;53.146;23.172;2022-09-11T02:28:42;1015.3;;;10.7;83.6
74433;BME280;62865;53.146;23.172;2022-09-11T02:34:09;1015.2;;;10.7;83.7
74433;BME280;62865;53.146;23.172;2022-09-11T02:39:47;1015.1;;;10.7;83.5
74433;BME280;62865;53.146;23.172;2022-09-11T02:49:57;1015;;;10.7;83.6
74433;BME280;62865;53.146;23.172;2022-09-11T02:58:46;1014.8;;;10.9;82.4
74433;BME280;62865;53.146;23.172;2022-09-11T03:03:24;1014.8;;;10.8;82.5
74433;BME280;62865;53.146;23.172;2022-09-11T03:08:49;1014.7;;;10.8;82.9
74433;BME280;62865;53.146;23.172;2022-09-11T03:14:09;1014.6;;;10.7;82.9
74433;BME280;62865;53.146;23.172;2022-09-11T03:18:54;1014.6;;;10.7;83.1
74433;BME280;62865;53.146;23.172;2022-09-11T03:23:42;1014.6;;;10.7;83
74433;BME280;62865;53.146;23.172;2022-09-11T03:28:24;1014.5;;;10.7;82.7
74433;BME280;62865;53.146;23.172;2022-09-11T03:33:43;1014.5;;;10.5;83.5
74433;BME280;62865;53.146;23.172;2022-09-11T03:39:06;1014.4;;;10.6;83.5
74433;BME280;62865;53.146;23.172;2022-09-11T03:43:57;1014.4;;;10.5;83.5
74433;BME280;62865;53.146;23.172;2022-09-11T03:48:24;1014.3;;;10.4;83.5
74433;BME280;62865;53.146;23.172;2022-09-11T03:53:25;1014.3;;;10.4;83.9
74433;BME280;62865;53.146;23.172;2022-09-11T03:58:57;1014.2;;;10.5;83.7
74433;BME280;62865;53.146;23.172;2022-09-11T04:03:46;1014.2;;;10.4;83.8
74433;BME280;62865;53.146;23.172;2022-09-11T04:08:57;1014.2;;;10.4;83.8
74433;BME280;62865;53.146;23.172;2022-09-11T04:13:54;1014.2;;;10.4;83.2
74433;BME280;62865;53.146;23.172;2022-09-11T04:18:54;1014.2;;;10.4;83.3
74433;BME280;62865;53.146;23.172;2022-09-11T04:23:58;1014.2;;;10.3;83.5
74433;BME280;62865;53.146;23.172;2022-09-11T04:29:06;1014.1;;;10.2;83.6
74433;BME280;62865;53.146;23.172;2022-09-11T04:33:45;1014.1;;;10.3;83.4
74433;BME280;62865;53.146;23.172;2022-09-11T04:38:24;1014;;;10.3;83.9
74433;BME280;62865;53.146;23.172;2022-09-11T04:43:52;1014;;;10.3;83.5
74433;BME280;62865;53.146;23.172;2022-09-11T04:49:07;1013.9;;;10.3;83.5
74433;BME280;62865;53.146;23.172;2022-09-11T04:54:07;1013.9;;;10.3;83.8
74433;BME280;62865;53.146;23.172;2022-09-11T04:58:44;1013.9;;;10.2;83.5
74433;BME280;62865;53.146;23.172;2022-09-11T05:04:06;1013.9;;;10.3;82.9
74433;BME280;62865;53.146;23.172;2022-09-11T05:09:05;1013.9;;;10.2;83.4
74433;BME280;62865;53.146;23.172;2022-09-11T05:13:44;1013.8;;;10.2;83.4
74433;BME280;62865;53.146;23.172;2022-09-11T05:18:48;1013.8;;;10.1;83.5
74433;BME280;62865;53.146;23.172;2022-09-11T05:23:46;1013.8;;;10;83.5
74433;BME280;62865;53.146;23.172;2022-09-11T05:28:36;1013.8;;;9.9;83.7
74433;BME280;62865;53.146;23.172;2022-09-11T05:33:32;1013.8;;;9.9;83.9
74433;BME280;62865;53.146;23.172;2022-09-11T05:38:36;1013.7;;;9.9;84
74433;BME280;62865;53.146;23.172;2022-09-11T05:43:48;1013.7;;;9.8;83.7
74433;BME280;62865;53.146;23.172;2022-09-11T05:49:07;1013.7;;;9.9;84.4
74433;BME280;62865;53.146;23.172;2022-09-11T05:54:08;1013.7;;;10;83.8
74433;BME280;62865;53.146;23.172;2022-09-11T05:58:45;1013.6;;;10;83.3
74433;BME280;62865;53.146;23.172;2022-09-11T06:09:06;1013.5;;;10.2;82.8
74433;BME280;62865;53.146;23.172;2022-09-11T06:14:09;1013.5;;;10.1;83.3
74433;BME280;62865;53.146;23.172;2022-09-11T06:18:36;1013.5;;;10;83.4
74433;BME280;62865;53.146;23.172;2022-09-11T06:23:25;1013.4;;;10;83.6
74433;BME280;62865;53.146;23.172;2022-09-11T06:29:11;1013.4;;;10;84
74433;BME280;62865;53.146;23.172;2022-09-11T06:33:59;1013.4;;;9.9;84
74433;BME280;62865;53.146;23.172;2022-09-11T06:38:25;1013.4;;;9.9;84
74433;BME280;62865;53.146;23.172;2022-09-11T06:43:57;1013.3;;;9.8;83.9
74433;BME280;62865;53.146;23.172;2022-09-11T06:48:55;1013.3;;;9.9;84.1
74433;BME280;62865;53.146;23.172;2022-09-11T06:53:47;1013.3;;;9.9;83.5
74433;BME280;62865;53.146;23.172;2022-09-11T06:58:59;1013.3;;;9.9;83.3
74433;BME280;62865;53.146;23.172;2022-09-11T07:04:11;1013.3;;;9.9;83.6
74433;BME280;62865;53.146;23.172;2022-09-11T07:08:35;1013.3;;;9.9;84
74433;BME280;62865;53.146;23.172;2022-09-11T07:13:40;1013.2;;;10;84.2
74433;BME280;62865;53.146;23.172;2022-09-11T07:19:09;1013.2;;;10.1;83.6
74433;BME280;62865;53.146;23.172;2022-09-11T07:23:59;1013.2;;;10.1;83.5
74433;BME280;62865;53.146;23.172;2022-09-11T07:29:11;1013.1;;;10.1;83.6
74433;BME280;62865;53.146;23.172;2022-09-11T07:33:26;1013.2;;;10;83.6
74433;BME280;62865;53.146;23.172;2022-09-11T07:38:59;1013.1;;;9.9;83.8
74433;BME280;62865;53.146;23.172;2022-09-11T07:44:11;1013.1;;;10;83.8
74433;BME280;62865;53.146;23.172;2022-09-11T07:48:47;1013.1;;;10.1;83.3
74433;BME280;62865;53.146;23.172;2022-09-11T07:53:48;1013.1;;;10.1;82.9
74433;BME280;62865;53.146;23.172;2022-09-11T07:58:25;1013.1;;;10;83
74433;BME280;62865;53.146;23.172;2022-09-11T08:03:37;1013.1;;;9.9;83.8
74433;BME280;62865;53.146;23.172;2022-09-11T08:08:50;1013.1;;;9.9;83.8
74433;BME280;62865;53.146;23.172;2022-09-11T08:13:49;1013.1;;;9.9;83.8
74433;BME280;62865;53.146;23.172;2022-09-11T08:19:19;1013.1;;;10.1;83.7
74433;BME280;62865;53.146;23.172;2022-09-11T08:24:11;1013.1;;;9.9;83.6
74433;BME280;62865;53.146;23.172;2022-09-11T08:28:45;1013.1;;;10;83
74433;BME280;62865;53.146;23.172;2022-09-11T08:34:01;1013.1;;;10;83
74433;BME280;62865;53.146;23.172;2022-09-11T08:39:11;1013.1;;;10;83
74433;BME280;62865;53.146;23.172;2022-09-11T08:44:11;1013.1;;;10.1;83
74433;BME280;62865;53.146;23.172;2022-09-11T08:48:28;1013.1;;;10.1;82.7
74433;BME280;62865;53.146;23.172;2022-09-11T08:53:25;1013.1;;;10.2;82.9
74433;BME280;62865;53.146;23.172;2022-09-11T08:59:42;1013.1;;;10.3;83
74433;BME280;62865;53.146;23.172;2022-09-11T09:04:02;1013.1;;;10.3;83
74433;BME280;62865;53.146;23.172;2022-09-11T09:08:39;1013.1;;;10.4;82.2
74433;BME280;62865;53.146;23.172;2022-09-11T09:19:01;1013;;;10.7;82.3
74433;BME280;62865;53.146;23.172;2022-09-11T09:23:37;1013;;;10.8;80.8
74433;BME280;62865;53.146;23.172;2022-09-11T09:28:57;1013;;;10.9;81.3
74433;BME280;62865;53.146;23.172;2022-09-11T09:34:13;1013;;;10.9;81.1
74433;BME280;62865;53.146;23.172;2022-09-11T09:38:33;1013;;;11;81.1
74433;BME280;62865;53.146;23.172;2022-09-11T09:44:02;1013;;;10.9;81
74433;BME280;62865;53.146;23.172;2022-09-11T09:48:35;1013;;;11;81.1
74433;BME280;62865;53.146;23.172;2022-09-11T09:54:13;1013;;;10.9;80.4
74433;BME280;62865;53.146;23.172;2022-09-11T09:59:13;1013;;;10.8;80.8
74433;BME280;62865;53.146;23.172;2022-09-11T10:04:08;1013;;;10.9;80.6
74433;BME280;62865;53.146;23.172;2022-09-11T10:09:25;1013;;;10.9;80.2
74433;BME280;62865;53.146;23.172;2022-09-11T10:13:57;1013.1;;;10.9;80.8
74433;BME280;62865;53.146;23.172;2022-09-11T10:18:47;1013.1;;;10.9;81.1
74433;BME280;62865;53.146;23.172;2022-09-11T10:24:18;1013.1;;;10.9;80.6
74433;BME280;62865;53.146;23.172;2022-09-11T10:28:45;1013.2;;;10.8;81.4
74433;BME280;62865;53.146;23.172;2022-09-11T10:33:47;1013.2;;;10.8;81.6
74433;BME280;62865;53.146;23.172;2022-09-11T10:38:52;1013.2;;;10.8;81.2
74433;BME280;62865;53.146;23.172;2022-09-11T10:43:55;1013.3;;;10.9;81.4
74433;BME280;62865;53.146;23.172;2022-09-11T10:49:18;1013.3;;;10.9;81.7
74433;BME280;62865;53.146;23.172;2022-09-11T10:53:58;1013.3;;;10.8;81.2
74433;BME280;62865;53.146;23.172;2022-09-11T10:59:12;1013.3;;;10.8;81.2
74433;BME280;62865;53.146;23.172;2022-09-11T11:03:47;1013.3;;;10.8;81.8
74433;BME280;62865;53.146;23.172;2022-09-11T11:10:02;1013.4;;;10.7;82.2
74433;BME280;62865;53.146;23.172;2022-09-11T11:18:39;1013.4;;;10.8;81.8
74433;BME280;62865;53.146;23.172;2022-09-11T11:29:53;1013.4;;;10.7;81.8
74433;BME280;62865;53.146;23.172;2022-09-11T11:38:39;1013.5;;;10.7;82.2
74433;BME280;62865;53.146;23.172;2022-09-11T11:43:37;1013.5;;;10.7;81.9
74433;BME280;62865;53.146;23.172;2022-09-11T11:48:58;1013.5;;;10.5;82.1
74433;BME280;62865;53.146;23.172;2022-09-11T11:53:58;1013.5;;;10.5;82.1
74433;BME280;62865;53.146;23.172;2022-09-11T11:59:01;1013.6;;;10.6;82.2
74433;BME280;62865;53.146;23.172;2022-09-11T12:04:15;1013.6;;;10.6;82.5
74433;BME280;62865;53.146;23.172;2022-09-11T12:08:43;1013.6;;;10.7;81.7
74433;BME280;62865;53.146;23.172;2022-09-11T12:13:28;1013.7;;;10.5;83.2
74433;BME280;62865;53.146;23.172;2022-09-11T12:18:59;1013.7;;;10.5;82.7
74433;BME280;62865;53.146;23.172;2022-09-11T12:24:11;1013.7;;;10.4;83.2
74433;BME280;62865;53.146;23.172;2022-09-11T12:29:40;1013.8;;;10.5;83.3
74433;BME280;62865;53.146;23.172;2022-09-11T12:39:21;1013.8;;;10.2;83.9
74433;BME280;62865;53.146;23.172;2022-09-11T12:43:59;1013.8;;;10.2;84.6
74433;BME280;62865;53.146;23.172;2022-09-11T12:49:19;1013.8;;;10.1;84.4
74433;BME280;62865;53.146;23.172;2022-09-11T12:53:58;1013.8;;;10.2;84.3
74433;BME280;62865;53.146;23.172;2022-09-11T12:58:28;1013.9;;;10.2;84.2
74433;BME280;62865;53.146;23.172;2022-09-11T13:03:25;1013.8;;;10.2;84.4
74433;BME280;62865;53.146;23.172;2022-09-11T13:08:58;1013.8;;;10.3;84.3
74433;BME280;62865;53.146;23.172;2022-09-11T13:13:38;1013.9;;;10.3;84
74433;BME280;62865;53.146;23.172;2022-09-11T13:19:16;1013.8;;;10.4;84
74433;BME280;62865;53.146;23.172;2022-09-11T13:23:58;1013.8;;;10.4;83.7
74433;BME280;62865;53.146;23.172;2022-09-11T13:28:40;1013.8;;;10.4;83.5
74433;BME280;62865;53.146;23.172;2022-09-11T13:33:25;1013.9;;;10.3;83.8
74433;BME280;62865;53.146;23.172;2022-09-11T13:38:56;1013.9;;;10.3;84
74433;BME280;62865;53.146;23.172;2022-09-11T13:44:21;1013.9;;;10.3;84.1
74433;BME280;62865;53.146;23.172;2022-09-11T13:48:48;1013.9;;;10.2;84.4
74433;BME280;62865;53.146;23.172;2022-09-11T13:53:25;1014;;;10.3;84.2
74433;BME280;62865;53.146;23.172;2022-09-11T13:58:35;1014;;;10.3;84.4
74433;BME280;62865;53.146;23.172;2022-09-11T14:03:49;1014;;;10.3;84.2
74433;BME280;62865;53.146;23.172;2022-09-11T14:08:50;1014;;;10.4;84
74433;BME280;62865;53.146;23.172;2022-09-11T14:14:03;1014;;;10.4;83.9
74433;BME280;62865;53.146;23.172;2022-09-11T14:19:01;1014;;;10.5;83.8
74433;BME280;62865;53.146;23.172;2022-09-11T14:23:57;1014;;;10.5;83.9
74433;BME280;62865;53.146;23.172;2022-09-11T14:28:58;1014;;;10.4;83.5
74433;BME280;62865;53.146;23.172;2022-09-11T14:34:15;1014;;;10.4;84
74433;BME280;62865;53.146;23.172;2022-09-11T14:39:13;1014.1;;;10.4;84.2
74433;BME280;62865;53.146;23.172;2022-09-11T14:43:36;1014.1;;;10.3;84.4
74433;BME280;62865;53.146;23.172;2022-09-11T14:48:25;1014;;;10.3;84.6
74433;BME280;62865;53.146;23.172;2022-09-11T14:54:12;1014.1;;;10.2;85
74433;BME280;62865;53.146;23.172;2022-09-11T14:58:59;1014.1;;;10.1;85.7
74433;BME280;62865;53.146;23.172;2022-09-11T15:04:14;1014.1;;;10.1;85.7
74433;BME280;62865;53.146;23.172;2022-09-11T15:08:47;1014.1;;;10.1;85.7
74433;BME280;62865;53.146;23.172;2022-09-11T15:13:57;1014.1;;;10.1;85.7
74433;BME280;62865;53.146;23.172;2022-09-11T15:19:09;1014.1;;;10.2;85.3
74433;BME280;62865;53.146;23.172;2022-09-11T15:23:45;1014.2;;;10.1;85.4
74433;BME280;62865;53.146;23.172;2022-09-11T15:28:35;1014.1;;;10;85.9
74433;BME280;62865;53.146;23.172;2022-09-11T15:33:35;1014.1;;;10.1;85.9
74433;BME280;62865;53.146;23.172;2022-09-11T15:38:35;1014.2;;;10.1;86
74433;BME280;62865;53.146;23.172;2022-09-11T15:43:59;1014.2;;;10;86.5
74433;BME280;62865;53.146;23.172;2022-09-11T15:48:47;1014.2;;;10.1;85.9
74433;BME280;62865;53.146;23.172;2022-09-11T15:54:09;1014.2;;;10.1;85.9
74433;BME280;62865;53.146;23.172;2022-09-11T15:59:11;1014.2;;;10.2;85.9
74433;BME280;62865;53.146;23.172;2022-09-11T16:03:49;1014.3;;;10.2;85.6
74433;BME280;62865;53.146;23.172;2022-09-11T16:09:10;1014.3;;;10.1;85.8
74433;BME280;62865;53.146;23.172;2022-09-11T16:14:14;1014.3;;;10.2;85.8
74433;BME280;62865;53.146;23.172;2022-09-11T16:19:09;1014.3;;;10.1;85.6
74433;BME280;62865;53.146;23.172;2022-09-11T16:23:37;1014.3;;;10.1;85.9
74433;BME280;62865;53.146;23.172;2022-09-11T16:28:35;1014.3;;;10.1;85.7
74433;BME280;62865;53.146;23.172;2022-09-11T16:34:10;1014.3;;;10.1;85.8
74433;BME280;62865;53.146;23.172;2022-09-11T16:38:59;1014.3;;;10.1;86
74433;BME280;62865;53.146;23.172;2022-09-11T16:43:50;1014.2;;;10.1;86.3
74433;BME280;62865;53.146;23.172;2022-09-11T16:48:59;1014.3;;;10.1;86.2
74433;BME280;62865;53.146;23.172;2022-09-11T16:53:57;1014.3;;;10.2;86.1
74433;BME280;62865;53.146;23.172;2022-09-11T16:58:47;1014.3;;;10.2;86.4
74433;BME280;62865;53.146;23.172;2022-09-11T17:03:46;1014.3;;;10.2;86.4
74433;BME280;62865;53.146;23.172;2022-09-11T17:09:11;1014.3;;;10.3;86.1
74433;BME280;62865;53.146;23.172;2022-09-11T17:13:25;1014.3;;;10.3;86.2
74433;BME280;62865;53.146;23.172;2022-09-11T17:18:37;1014.5;;;10.3;86.1
74433;BME280;62865;53.146;23.172;2022-09-11T17:24:11;1014.5;;;10.2;86.2
74433;BME280;62865;53.146;23.172;2022-09-11T17:28:59;1014.4;;;10.2;86.6
74433;BME280;62865;53.146;23.172;2022-09-11T17:34:09;1014.5;;;10.2;86.4
74433;BME280;62865;53.146;23.172;2022-09-11T17:38:46;1014.5;;;10.2;86.3
74433;BME280;62865;53.146;23.172;2022-09-11T17:43:57;1014.5;;;10.2;86.3
74433;BME280;62865;53.146;23.172;2022-09-11T17:49:11;1014.6;;;10.3;86.4
74433;BME280;62865;53.146;23.172;2022-09-11T17:53:48;1014.6;;;10.2;86.8
74433;BME280;62865;53.146;23.172;2022-09-11T17:58:49;1014.6;;;10.2;86.9
74433;BME280;62865;53.146;23.172;2022-09-11T18:03:35;1014.7;;;10.3;86.8
74433;BME280;62865;53.146;23.172;2022-09-11T18:08:25;1014.7;;;10.4;86.2
74433;BME280;62865;53.146;23.172;2022-09-11T18:13:47;1014.7;;;10.4;86
74433;BME280;62865;53.146;23.172;2022-09-11T18:18:25;1014.7;;;10.5;85.8
74433;BME280;62865;53.146;23.172;2022-09-11T18:24:11;1014.8;;;10.5;85.9
74433;BME280;62865;53.146;23.172;2022-09-11T18:29:10;1014.8;;;10.5;85.7
74433;BME280;62865;53.146;23.172;2022-09-11T18:33:51;1014.8;;;10.5;85.9
74433;BME280;62865;53.146;23.172;2022-09-11T18:39:09;1014.8;;;10.4;86.2
74433;BME280;62865;53.146;23.172;2022-09-11T18:44:11;1014.8;;;10.4;86.3
74433;BME280;62865;53.146;23.172;2022-09-11T18:49:12;1014.8;;;10.4;86.5
74433;BME280;62865;53.146;23.172;2022-09-11T18:53:35;1014.8;;;10.4;86.1
74433;BME280;62865;53.146;23.172;2022-09-11T18:58:27;1014.9;;;10.4;86.1
74433;BME280;62865;53.146;23.172;2022-09-11T19:03:59;1014.8;;;10.5;86.2
74433;BME280;62865;53.146;23.172;2022-09-11T19:08:57;1014.8;;;10.5;85.9
74433;BME280;62865;53.146;23.172;2022-09-11T19:13:35;1014.9;;;10.5;86.1
74433;BME280;62865;53.146;23.172;2022-09-11T19:18:57;1014.8;;;10.5;86.3
74433;BME280;62865;53.146;23.172;2022-09-11T19:23:58;1014.8;;;10.5;86.1
74433;BME280;62865;53.146;23.172;2022-09-11T19:28:57;1014.9;;;10.5;86.3
74433;BME280;62865;53.146;23.172;2022-09-11T19:33:58;1014.9;;;10.5;86.2
74433;BME280;62865;53.146;23.172;2022-09-11T19:39:09;1014.9;;;10.5;86.1
74433;BME280;62865;53.146;23.172;2022-09-11T19:43:35;1015;;;10.4;86.6
74433;BME280;62865;53.146;23.172;2022-09-11T19:48:47;1014.9;;;10.5;86.3
74433;BME280;62865;53.146;23.172;2022-09-11T19:53:26;1014.9;;;10.5;86.3
74433;BME280;62865;53.146;23.172;2022-09-11T19:59:09;1015;;;10.6;85.9
74433;BME280;62865;53.146;23.172;2022-09-11T20:04:01;1015;;;10.5;86
74433;BME280;62865;53.146;23.172;2022-09-11T20:08:46;1015.1;;;10.5;86.3
74433;BME280;62865;53.146;23.172;2022-09-11T20:13:59;1015.1;;;10.6;86.1
74433;BME280;62865;53.146;23.172;2022-09-11T20:18:58;1015.1;;;10.6;85.9
74433;BME280;62865;53.146;23.172;2022-09-11T20:23:25;1015.1;;;10.6;85.9
74433;BME280;62865;53.146;23.172;2022-09-11T20:28:51;1015.1;;;10.7;85.7
74433;BME280;62865;53.146;23.172;2022-09-11T20:33:25;1015.1;;;10.7;85.4
74433;BME280;62865;53.146;23.172;2022-09-11T20:38:25;1015.2;;;10.7;85.4
74433;BME280;62865;53.146;23.172;2022-09-11T20:43:35;1015.2;;;10.7;85.6
74433;BME280;62865;53.146;23.172;2022-09-11T20:48:49;1015.2;;;10.7;85.5
74433;BME280;62865;53.146;23.172;2022-09-11T20:54:11;1015.3;;;10.7;85.8
74433;BME280;62865;53.146;23.172;2022-09-11T20:58:39;1015.2;;;10.7;85.7
74433;BME280;62865;53.146;23.172;2022-09-11T21:03:48;1015.3;;;10.7;86.1
74433;BME280;62865;53.146;23.172;2022-09-11T21:08:35;1015.4;;;10.7;85.9
74433;BME280;62865;53.146;23.172;2022-09-11T21:13:57;1015.2;;;10.6;86.3
74433;BME280;62865;53.146;23.172;2022-09-11T21:19:11;1015.3;;;10.7;86.1
74433;BME280;62865;53.146;23.172;2022-09-11T21:23:52;1015.3;;;10.7;86
74433;BME280;62865;53.146;23.172;2022-09-11T21:28:35;1015.3;;;10.8;85.6
74433;BME280;62865;53.146;23.172;2022-09-11T21:33:25;1015.3;;;10.8;85.6
74433;BME280;62865;53.146;23.172;2022-09-11T21:43:47;1015.3;;;10.7;85.9
74433;BME280;62865;53.146;23.172;2022-09-11T21:49:01;1015.3;;;10.7;85.9
74433;BME280;62865;53.146;23.172;2022-09-11T21:53:59;1015.4;;;10.8;85.9
74433;BME280;62865;53.146;23.172;2022-09-11T21:58:59;1015.4;;;10.8;85.7
74433;BME280;62865;53.146;23.172;2022-09-11T22:03:59;1015.4;;;10.8;85.7
74433;BME280;62865;53.146;23.172;2022-09-11T22:09:11;1015.5;;;10.8;86
74433;BME280;62865;53.146;23.172;2022-09-11T22:13:25;1015.5;;;10.7;86.3
74433;BME280;62865;53.146;23.172;2022-09-11T22:18:25;1015.5;;;10.8;86.3
74433;BME280;62865;53.146;23.172;2022-09-11T22:23:25;1015.5;;;10.9;85.9
74433;BME280;62865;53.146;23.172;2022-09-11T22:29:11;1015.5;;;10.8;85.8
74433;BME280;62865;53.146;23.172;2022-09-11T22:34:11;1015.6;;;10.9;85.9
74433;BME280;62865;53.146;23.172;2022-09-11T22:38:46;1015.6;;;10.9;85.9
74433;BME280;62865;53.146;23.172;2022-09-11T22:44:13;1015.6;;;10.9;85.9
74433;BME280;62865;53.146;23.172;2022-09-11T22:48:59;1015.6;;;10.8;86
74433;BME280;62865;53.146;23.172;2022-09-11T22:53:43;1015.7;;;10.8;86.2
74433;BME280;62865;53.146;23.172;2022-09-11T22:58:57;1015.6;;;10.9;86.3
74433;BME280;62865;53.146;23.172;2022-09-11T23:03:45;1015.6;;;10.9;86.3
74433;BME280;62865;53.146;23.172;2022-09-11T23:08:37;1015.8;;;11;85.6
74433;BME280;62865;53.146;23.172;2022-09-11T23:13:49;1015.7;;;10.9;85.9
74433;BME280;62865;53.146;23.172;2022-09-11T23:18:26;1015.8;;;11;85.7
74433;BME280;62865;53.146;23.172;2022-09-11T23:23:50;1015.8;;;10.9;86
74433;BME280;62865;53.146;23.172;2022-09-11T23:29:07;1015.8;;;11;85.7
74433;BME280;62865;53.146;23.172;2022-09-11T23:34:10;1015.8;;;11.1;85.7
74433;BME280;62865;53.146;23.172;2022-09-11T23:38:47;1015.8;;;11.1;85.7
74433;BME280;62865;53.146;23.172;2022-09-11T23:44:05;1015.9;;;11.1;85.9
74433;BME280;62865;53.146;23.172;2022-09-11T23:49:08;1015.9;;;11.2;85.3
74433;BME280;62865;53.146;23.172;2022-09-11T23:54:07;1015.9;;;11.1;85.5
74433;BME280;62865;53.146;23.172;2022-09-11T23:58:37;1015.9;;;11.1;85.7
